KCAD

Wexford County Airport

Cadillac, Michigan, USA
METAR KCAD 230755Z AUTO 13012G18KT 10SM SCT015 BKN021 OVC040 M02/M05 A3029 RMK AO2 T10221050
Observed Flight Rules
Feb-23 @ 07:55 UTC (17 minutes ago) Marginal Visual Flight Rules
Wind Visibility Clouds
130° at 12 knots
 Gusting to 18 knots
10 miles
  • Scattered at 1,500' AGL
  • Broken at 2,100' AGL
  • Overcast at 4,000' AGL
Temperatures Readings
Current -2°C / 28°F
Dewpoint -5°C / 23°F
Humidity 80%
Altimeter 30.29" Hg
Pressure 1026 hPa
Elevation 398
METAR KCAD 230755Z AUTO 13012G18KT 10SM SCT015 BKN021 OVC040 M02/M05 A3029 RMK AO2 T10221050
Observed Flight Rules
Feb-23 @ 07:55 UTC
(17 minutes ago)
MVFR
Wind Visibility
130° at 12 knots
 Gusting to 18 knots
10 miles
Clouds
  • Scattered at 1,500' AGL
  • Broken at 2,100' AGL
  • Overcast at 4,000' AGL
Temperature Dewpoint
-2°C / 28°F -5°C / 23°F
Humidity Altimeter Pressure
80% 30.29" Hg 1026 hPa